• Join FlightAware (Why Join?)
  • Login
  • US Flag 
06:45PM EDT


 

Airport Tracker/Info


-or-


 

Live Flight TrackerFlight Track Log ✈ UAL495 ✈ 11-May-2013 ✈ KLAX - KDEN

Flight Track Log - Related Links

Times and Time Zones

All times are in EDT time to prevent confusion due to time zone crossing. See the UAL495 flight status page for this flight to view local times or setup timezone preferences in your user account.

Time Position Orientation Groundspeed Altitude Reporting Facility
EDT Latitude Longitude Course Direction KTS MPH feet Rate Location/Type
08:55AM 33.9311 -118.4458 90° East 213 245 1,700  Level Los Angeles Center
08:56AM 33.8761 -118.5025 221° Southwest 255 293 4,400 2,700 Climbing Los Angeles Center
08:57AM 33.8058 -118.5092 185° South 284 327 7,100 2,940 Climbing Los Angeles Center
08:58AM 33.7924 -118.6565 132° Southeast  Level FlightAware Approximate
08:58AM 33.7261 -118.5181 185° South 292 336 10,300  Level Los Angeles Center
08:59AM 33.7168 -118.5585 134° Southeast  Level FlightAware Approximate
08:59AM 33.6672 -118.4231 127° Southeast 326 375 12,000  Level Los Angeles Center
09:00AM 33.6710 -118.4426 101° East  Level FlightAware Approximate
09:00AM 33.6428 -118.3089 104° East 361 415 14,600  Level Los Angeles Center
09:01AM 33.6333 -118.3186 90° East  Level FlightAware Approximate
09:01AM 33.6514 -118.1861 85° East 385 443 16,800  Level Los Angeles Center
09:02AM 33.7308 -118.1025 41° Northeast 391 450 19,000 2,220 Climbing Los Angeles Center
09:03AM 33.8186 -118.0231 37° Northeast 398 458 21,300 2,280 Climbing Los Angeles Center
09:04AM 33.9086 -117.9414 37° Northeast 406 467 23,600 2,220 Climbing Los Angeles Center
09:05AM 33.9997 -117.8586 37° Northeast 411 473 25,800 1,920 Climbing Los Angeles Center
09:06AM 34.0864 -117.7681 41° Northeast 416 479 27,500 1,500 Climbing Los Angeles Center
09:08AM 34.1683 -117.6656 46° Northeast 424 488 28,900 1,740 Climbing Los Angeles Center
09:09AM 34.2486 -117.5617 47° Northeast 425 489 31,100 2,160 Climbing Los Angeles Center
09:10AM 34.3267 -117.4639 46° Northeast 409 471 33,300 1,980 Climbing Los Angeles Center
09:11AM 34.4086 -117.3581 47° Northeast 395 455 35,100 1,500 Climbing Los Angeles Center
09:12AM 34.4828 -117.2622 47° Northeast 391 450 36,400 900 Climbing Los Angeles Center
09:13AM 34.5564 -117.1683 46° Northeast 389 448 37,000 240 Climbing Los Angeles Center
09:14AM 34.6286 -117.0753 47° Northeast 383 441 37,000  Level Los Angeles Center
09:15AM 34.7028 -116.9797 47° Northeast 389 448 37,000  Level Los Angeles Center
09:16AM 34.7783 -116.8822 47° Northeast 397 457 37,000  Level Los Angeles Center
09:17AM 34.8539 -116.7836 47° Northeast 400 460 37,000  Level Los Angeles Center
09:18AM 34.9300 -116.6836 47° Northeast 404 465 37,000  Level Los Angeles Center
09:19AM 35.0064 -116.5847 47° Northeast 402 463 37,000  Level Los Angeles Center
09:20AM 35.0817 -116.4850 47° Northeast 402 463 37,000  Level Los Angeles Center
09:21AM 35.1578 -116.3867 47° Northeast 399 459 37,000  Level Los Angeles Center
09:22AM 35.2322 -116.2875 47° Northeast 399 459 37,000  Level Los Angeles Center
09:23AM 35.3225 -116.1697 47° Northeast 397 457 37,000  Level Los Angeles Center
09:24AM 35.3961 -116.0714 47° Northeast 395 455 37,000  Level Los Angeles Center
09:25AM 35.4703 -115.9739 47° Northeast 393 452 37,000  Level Los Angeles Center
09:26AM 35.5489 -115.8700 47° Northeast 393 452 37,000  Level Los Angeles Center
09:27AM 35.6239 -115.7758 46° Northeast 388 447 37,000  Level Los Angeles Center
09:28AM 35.6983 -115.6758 47° Northeast 393 452 37,000  Level Los Angeles Center
09:29AM 35.7739 -115.5736 48° Northeast 400 460 37,000  Level Los Angeles Center
09:30AM 35.8503 -115.4700 48° Northeast 407 468 37,000  Level Los Angeles Center
09:31AM 35.9286 -115.3650 47° Northeast 414 476 37,000  Level Los Angeles Center
09:32AM 36.0061 -115.2592 48° Northeast 418 481 37,000  Level Los Angeles Center
09:33AM 36.0808 -115.1497 50° Northeast 421 484 37,000  Level Los Angeles Center
09:34AM 36.1253 -115.0131 68° East 435 501 37,000  Level Los Angeles Center
09:35AM 36.1661 -114.8736 70° East 435 501 37,000  Level Los Angeles Center
09:36AM 36.2089 -114.7342 69° East 435 501 37,000  Level Los Angeles Center
09:37AM 36.2522 -114.5953 69° East 435 501 37,000  Level Los Angeles Center
09:38AM 36.2950 -114.4564 69° East 434 499 37,000  Level Los Angeles Center
09:39AM 36.3450 -114.2889 70° East 433 498 37,000  Level Los Angeles Center
09:40AM 36.3864 -114.1514 69° East 428 493 37,000  Level Los Angeles Center
09:41AM 36.4278 -114.0147 69° East 425 489 37,000  Level Los Angeles Center
09:42AM 36.4683 -113.8761 70° East 427 491 37,000  Level Los Angeles Center
09:43AM 36.5106 -113.7369 69° East 425 489 37,000  Level Los Angeles Center
09:44AM 36.5497 -113.6008 70° East 421 484 37,000  Level Los Angeles Center
09:45AM 36.5900 -113.4636 70° East 423 487 37,000  Level Los Angeles Center
09:46AM 36.6297 -113.3272 70° East 422 486 37,000  Level Los Angeles Center
09:47AM 36.6706 -113.1903 70° East 423 487 37,000  Level Los Angeles Center
09:48AM 36.7097 -113.0528 70° East 424 488 37,000  Level Los Angeles Center
09:49AM 36.7486 -112.9150 71° East 424 488 37,000  Level Los Angeles Center
09:50AM 36.7883 -112.7786 70° East 423 487 37,000  Level Los Angeles Center
09:51AM 36.8269 -112.6425 70° East 420 483 37,000  Level Los Angeles Center
09:52AM 36.8736 -112.4783 70° East 422 486 37,000  Level Los Angeles Center
09:53AM 36.9117 -112.3425 71° East 418 481 37,000  Level Los Angeles Center
09:54AM 36.9500 -112.2056 71° East 419 482 37,000  Level Los Angeles Center
09:55AM 36.9881 -112.0672 71° East 423 487 37,000  Level Los Angeles Center
09:56AM 37.0039 -112.0125 70° East 422 486 37,000  Level Denver Center
09:57AM 37.0428 -111.8750 70° East 422 486 37,000  Level Denver Center
09:58AM 37.0731 -111.7650 71° East 421 484 37,000  Level Denver Center
09:59AM 37.1194 -111.6006 70° East 420 483 37,000  Level Denver Center
10:00AM 37.1608 -111.4375 72° East 414 476 37,000  Level Denver Center
10:01AM 37.1978 -111.3000 71° East 417 480 37,000  Level Denver Center
10:02AM 37.2358 -111.1631 71° East 418 481 37,000  Level Denver Center
10:03AM 37.2725 -111.0250 72° East 417 480 37,000  Level Denver Center
10:04AM 37.3092 -110.8856 72° East 422 486 37,000  Level Denver Center
10:05AM 37.3464 -110.7475 71° East 419 482 37,000  Level Denver Center
10:06AM 37.3828 -110.6083 72° East 420 483 37,000  Level Denver Center
10:07AM 37.4192 -110.4689 72° East 422 486 37,000  Level Denver Center
10:08AM 37.4556 -110.3289 72° East 423 487 37,000  Level Denver Center
10:09AM 37.4928 -110.1847 72° East 423 487 37,000  Level Denver Center
10:10AM 37.5342 -110.0283 72° East 422 486 37,000  Level Denver Center
10:11AM 37.5686 -109.8925 72° East 424 488 37,000  Level Denver Center
10:12AM 37.6092 -109.7336 72° East 426 490 37,000  Level Denver Center
10:13AM 37.6433 -109.5975 72° East 426 490 37,000  Level Denver Center
10:14AM 37.6772 -109.4586 73° East 431 496 37,000  Level Denver Center
10:15AM 37.7397 -109.3153 61° Northeast 421 484 37,000  Level Denver Center
10:16AM 37.7964 -109.1919 60° Northeast 422 486 37,000  Level Denver Center
10:17AM 37.8525 -109.0686 60° Northeast 422 486 37,000  Level Denver Center
10:18AM 37.9178 -108.9239 60° Northeast 423 487 37,000  Level Denver Center
10:19AM 37.9744 -108.7989 60° Northeast 425 489 37,000  Level Denver Center
10:20AM 38.0394 -108.6528 61° Northeast 426 490 37,000  Level Denver Center
10:21AM 38.0967 -108.5222 61° Northeast 432 497 37,000  Level Denver Center
10:22AM 38.1531 -108.3981 60° Northeast 429 494 37,000  Level Denver Center
10:23AM 38.2000 -108.2917 61° Northeast 430 495 37,000  Level Denver Center
10:24AM 38.2756 -108.1219 60° Northeast 433 498 37,000  Level Denver Center
10:25AM 38.3411 -107.9736 61° Northeast 432 497 37,000  Level Denver Center
10:26AM 38.3964 -107.8475 61° Northeast 429 494 37,000  Level Denver Center
10:27AM 38.4431 -107.7406 61° Northeast 431 496 37,000 -300 Level Denver Center
10:28AM 38.5197 -107.5636 61° Northeast 446 513 36,400 -840 Descending Denver Center
10:29AM 38.5792 -107.4264 61° Northeast 455 524 35,400 -1,200 Descending Denver Center
10:30AM 38.6481 -107.2669 61° Northeast 458 527 34,000 -1,260 Descending Denver Center
10:31AM 38.7031 -107.1394 61° Northeast 461 531 32,800 -1,320 Descending Denver Center
10:32AM 38.7661 -106.9919 61° Northeast 472 543 31,400 -960 Descending Denver Center
10:33AM 38.8281 -106.8467 61° Northeast 467 537 30,900 -540 Descending Denver Center
10:34AM 38.8964 -106.6858 61° Northeast 466 536 30,300 -900 Descending Denver Center
10:35AM 38.9628 -106.5294 61° Northeast 450 518 29,100 -1,260 Descending Denver Center
10:36AM 39.0192 -106.3933 62° Northeast 452 520 27,800 -1,920 Descending Denver Center
10:37AM 39.0869 -106.2300 62° Northeast 461 531 25,200 -2,340 Descending Denver Center
10:38AM 39.1419 -106.0983 62° Northeast 468 539 23,000 -1,080 Descending Denver Center
10:40AM 39.2003 -105.9603 61° Northeast 447 514 23,000  Level Denver Center
10:41AM 39.2658 -105.7961 63° Northeast 432 497 23,000 -180 Level Denver Center
10:42AM 39.3239 -105.6575 62° Northeast 436 502 22,700 -480 Descending Denver Center
10:43AM 39.3758 -105.5311 62° Northeast 404 465 22,100 -1,020 Descending Denver Center
10:44AM 39.4286 -105.4147 60° Northeast 353 406 20,600 -2,040 Descending Denver Center
10:45AM 39.4831 -105.3172 54° Northeast 336 387 18,000 -2,520 Descending Denver Center
10:46AM 39.5322 -105.2181 57° Northeast 327 376 15,400 -2,040 Descending Denver Center
10:47AM 39.6089 -105.1750 23° Northeast 304 350 13,900 -1,140 Descending Denver Center
10:48AM 39.6867 -105.1717 North 285 328 13,100 -840 Descending Denver Center
10:49AM 39.7508 -105.1383 22° Northeast 245 282 12,200 -1,260 Descending Denver Center
10:50AM 39.7908 -105.0667 54° Northeast 248 285 10,500 -1,680 Descending Denver Center
10:51AM 39.8219 -104.9878 63° Northeast 247 284 8,800 -1,200 Descending Denver Center
10:52AM 39.8406 -104.9114 72° East 211 243 8,100 -720 Descending Denver Center